createdAt,value
2023-04-17T00:02:19.456Z,5.70
2023-04-17T00:04:52.192Z,5.30
2023-04-17T00:07:22.913Z,4.00
2023-04-17T00:09:56.028Z,4.40
2023-04-17T00:12:26.182Z,5.60
2023-04-17T00:14:56.381Z,5.50
2023-04-17T00:17:26.865Z,5.80
2023-04-17T00:19:57.162Z,6.00
2023-04-17T00:22:27.443Z,7.10
2023-04-17T00:24:57.842Z,5.80
2023-04-17T00:27:30.316Z,6.50
2023-04-17T00:30:01.375Z,7.20
2023-04-17T00:32:31.654Z,6.90
2023-04-17T00:35:02.257Z,5.60
2023-04-17T00:37:33.034Z,6.30
2023-04-17T00:40:03.560Z,6.00
2023-04-17T00:42:33.376Z,7.10
2023-04-17T00:45:05.248Z,7.70
2023-04-17T00:47:36.267Z,7.10
2023-04-17T00:50:08.507Z,7.50
2023-04-17T00:52:41.788Z,7.80
2023-04-17T00:55:12.789Z,7.90
2023-04-17T00:57:44.652Z,7.90
2023-04-17T01:00:17.873Z,8.40
2023-04-17T01:02:48.429Z,8.00
2023-04-17T01:05:19.293Z,7.80
2023-04-17T01:07:50.112Z,8.50
2023-04-17T01:10:20.715Z,7.60
2023-04-17T01:13:02.255Z,7.10
2023-04-17T01:15:32.974Z,7.50
2023-04-17T01:18:04.073Z,8.50
2023-04-17T01:20:34.627Z,8.40
2023-04-17T01:23:05.256Z,7.60
2023-04-17T01:25:35.784Z,7.90
2023-04-17T01:28:06.265Z,8.10
2023-04-17T01:30:37.160Z,8.60
2023-04-17T01:33:07.730Z,8.50
2023-04-17T01:35:38.067Z,8.30
2023-04-17T01:38:08.776Z,7.60
2023-04-17T01:40:40.228Z,8.80
2023-04-17T01:43:10.227Z,7.80
2023-04-17T01:45:41.072Z,7.30
2023-04-17T01:48:11.774Z,7.20
2023-04-17T01:50:42.500Z,6.50
2023-04-17T01:53:16.347Z,6.30
2023-04-17T01:55:46.771Z,6.60
2023-04-17T01:58:17.413Z,6.40
2023-04-17T02:00:49.205Z,6.70
2023-04-17T02:03:20.471Z,6.50
2023-04-17T02:05:51.227Z,8.10
2023-04-17T02:08:21.454Z,6.60
2023-04-17T02:10:51.878Z,8.10
2023-04-17T02:13:22.454Z,7.90
2023-04-17T02:15:52.801Z,7.10
2023-04-17T02:18:23.770Z,7.80
2023-04-17T02:20:54.011Z,7.00
2023-04-17T02:23:24.198Z,7.40
2023-04-17T02:25:54.555Z,6.00
2023-04-17T02:28:24.817Z,6.50
2023-04-17T02:30:55.340Z,5.30
2023-04-17T02:33:25.972Z,6.50
2023-04-17T02:35:56.646Z,5.90
2023-04-17T02:38:30.161Z,5.20
2023-04-17T02:41:00.895Z,6.30
2023-04-17T02:43:31.609Z,6.40
2023-04-17T02:46:02.057Z,6.70
2023-04-17T02:48:32.429Z,5.60
2023-04-17T02:51:02.924Z,6.10
2023-04-17T02:53:33.224Z,7.10
2023-04-17T02:56:03.850Z,6.70
2023-04-17T02:58:34.023Z,8.10
2023-04-17T03:01:05.269Z,8.20
2023-04-17T03:03:38.963Z,7.10
2023-04-17T03:06:10.112Z,8.70
2023-04-17T03:08:40.652Z,7.00
2023-04-17T03:11:11.063Z,7.90
2023-04-17T03:13:41.340Z,7.80
2023-04-17T03:16:11.713Z,8.20
2023-04-17T03:18:42.633Z,8.40
2023-04-17T03:21:13.006Z,8.50
2023-04-17T03:23:43.472Z,8.00
2023-04-17T03:26:15.536Z,8.30
2023-04-17T03:28:46.034Z,8.70
2023-04-17T03:31:17.308Z,9.00
2023-04-17T03:33:48.408Z,7.60
2023-04-17T03:36:19.108Z,9.90
2023-04-17T03:38:49.967Z,8.80
2023-04-17T03:41:19.999Z,9.00
2023-04-17T03:43:50.645Z,8.00
2023-04-17T03:46:20.902Z,8.50
2023-04-17T03:48:51.477Z,7.80
2023-04-17T03:51:21.796Z,7.80
2023-04-17T03:53:52.564Z,8.10
2023-04-17T03:56:23.442Z,7.20
2023-04-17T03:58:53.743Z,7.70
2023-04-17T04:01:28.100Z,8.10
2023-04-17T04:03:59.118Z,8.20
2023-04-17T04:06:30.156Z,7.70
2023-04-17T04:09:00.668Z,7.50
2023-04-17T04:11:31.345Z,7.70
2023-04-17T04:14:01.568Z,7.30
2023-04-17T04:16:31.900Z,7.90
2023-04-17T04:19:02.045Z,7.90
2023-04-17T04:21:32.309Z,7.20
2023-04-17T04:24:03.277Z,8.10
2023-04-17T04:26:33.812Z,9.00
2023-04-17T04:29:04.353Z,7.90
2023-04-17T04:31:35.500Z,7.90
2023-04-17T04:34:06.184Z,8.90
2023-04-17T04:36:41.862Z,7.60
2023-04-17T04:39:12.792Z,8.80
2023-04-17T04:41:46.001Z,7.90
2023-04-17T04:44:18.476Z,7.00
2023-04-17T04:46:49.085Z,7.60
2023-04-17T04:49:19.610Z,7.80
2023-04-17T04:51:50.450Z,8.70
2023-04-17T04:54:21.086Z,7.90
2023-04-17T04:56:51.341Z,8.70
2023-04-17T04:59:22.449Z,7.70
2023-04-17T05:01:52.849Z,8.80
2023-04-17T05:04:23.613Z,9.20
2023-04-17T05:06:53.862Z,7.80
2023-04-17T05:09:24.570Z,7.60
2023-04-17T05:11:55.050Z,8.00
2023-04-17T05:14:26.002Z,7.60
2023-04-17T05:16:56.330Z,7.40
2023-04-17T05:19:26.628Z,8.40
2023-04-17T05:21:57.506Z,9.90
2023-04-17T05:24:28.317Z,9.20
2023-04-17T05:26:59.083Z,9.80
2023-04-17T05:29:30.117Z,8.60
2023-04-17T05:32:00.539Z,9.60
2023-04-17T05:34:31.707Z,9.80
2023-04-17T05:37:02.661Z,8.90
2023-04-17T05:39:33.620Z,10.40
2023-04-17T05:42:04.927Z,11.90
2023-04-17T05:44:35.691Z,10.40
2023-04-17T05:47:06.955Z,11.40
2023-04-17T05:49:37.430Z,10.20
2023-04-17T05:52:08.168Z,9.90
2023-04-17T05:54:38.876Z,10.30
2023-04-17T05:57:09.441Z,9.70
2023-04-17T05:59:39.973Z,9.80
2023-04-17T06:02:11.029Z,9.20
2023-04-17T06:04:42.067Z,9.40
2023-04-17T06:07:12.616Z,8.80
2023-04-17T06:09:43.641Z,10.80
2023-04-17T06:12:16.247Z,8.80
2023-04-17T06:14:46.808Z,8.60
2023-04-17T06:17:17.752Z,7.70
2023-04-17T06:19:48.276Z,8.70
2023-04-17T06:22:18.867Z,8.00
2023-04-17T06:24:50.895Z,7.80
2023-04-17T06:27:21.581Z,7.30
2023-04-17T06:29:52.216Z,7.50
2023-04-17T06:32:23.153Z,6.30
2023-04-17T06:34:59.579Z,7.20
2023-04-17T06:37:30.983Z,9.90
2023-04-17T06:40:03.755Z,7.90
2023-04-17T06:42:36.783Z,6.90
2023-04-17T06:45:10.967Z,9.20
2023-04-17T06:47:44.967Z,7.90
2023-04-17T06:50:16.826Z,7.30
2023-04-17T06:52:50.411Z,6.80
2023-04-17T06:55:21.129Z,7.00
2023-04-17T06:57:52.350Z,7.10
2023-04-17T07:00:24.517Z,8.00
2023-04-17T07:02:55.206Z,7.40
2023-04-17T07:05:25.857Z,6.40
2023-04-17T07:07:56.813Z,8.00
2023-04-17T07:10:27.468Z,8.10
2023-04-17T07:12:58.377Z,7.90
2023-04-17T07:15:30.335Z,8.30
2023-04-17T07:18:00.922Z,8.20
2023-04-17T07:20:32.158Z,10.00
2023-04-17T07:23:02.998Z,7.10
2023-04-17T07:25:34.389Z,8.10
2023-04-17T07:28:05.028Z,6.80
2023-04-17T07:30:36.473Z,6.90
2023-04-17T07:33:06.804Z,8.10
2023-04-17T07:35:37.115Z,7.40
2023-04-17T07:38:07.535Z,7.00
2023-04-17T07:40:38.158Z,7.40
2023-04-17T07:43:09.150Z,8.60
2023-04-17T07:45:41.641Z,8.00
2023-04-17T07:48:13.900Z,8.40
2023-04-17T07:50:44.324Z,8.70
2023-04-17T07:53:14.929Z,7.00
2023-04-17T07:55:46.702Z,8.30
2023-04-17T07:58:18.070Z,7.80
2023-04-17T08:00:51.758Z,9.00
2023-04-17T08:03:24.272Z,8.50
2023-04-17T08:05:55.780Z,9.50
2023-04-17T08:08:27.836Z,9.40
2023-04-17T08:10:58.242Z,8.90
2023-04-17T08:13:28.645Z,8.40
2023-04-17T08:15:59.444Z,9.60
2023-04-17T08:18:29.670Z,9.80
2023-04-17T08:21:00.725Z,9.00
2023-04-17T08:23:33.409Z,10.10
2023-04-17T08:26:04.084Z,11.00
2023-04-17T08:28:40.440Z,10.10
2023-04-17T08:31:14.654Z,9.20
2023-04-17T08:33:44.930Z,8.80
2023-04-17T08:36:15.336Z,14.10
2023-04-17T08:38:47.309Z,10.20
2023-04-17T08:41:22.830Z,9.10
2023-04-17T08:43:53.511Z,12.50
2023-04-17T08:46:24.584Z,11.20
2023-04-17T08:48:55.712Z,9.70
2023-04-17T08:51:28.050Z,8.70
2023-04-17T08:53:58.327Z,8.90
2023-04-17T08:56:30.731Z,9.20
2023-04-17T08:59:01.627Z,9.70
2023-04-17T09:01:33.568Z,9.10
2023-04-17T09:04:04.659Z,9.70
2023-04-17T09:06:56.710Z,9.20
2023-04-17T09:09:27.412Z,9.80
2023-04-17T09:12:13.392Z,11.10
2023-04-17T09:14:43.910Z,11.40
2023-04-17T09:17:14.416Z,11.20
2023-04-17T09:20:08.064Z,10.70
2023-04-17T09:22:41.135Z,9.50
2023-04-17T09:25:18.287Z,11.40
2023-04-17T09:27:48.772Z,9.40
2023-04-17T09:30:19.807Z,10.10
2023-04-17T09:32:51.820Z,10.60
2023-04-17T09:35:31.674Z,11.50
2023-04-17T09:38:01.921Z,9.20
2023-04-17T09:40:40.662Z,8.80
2023-04-17T09:43:12.094Z,7.90
2023-04-17T09:45:44.689Z,9.60
2023-04-17T09:48:15.065Z,9.60
2023-04-17T09:50:46.160Z,9.20
2023-04-17T09:53:17.435Z,9.40
2023-04-17T09:55:49.017Z,9.90
2023-04-17T09:58:20.823Z,11.30
2023-04-17T10:00:51.889Z,11.20
2023-04-17T10:03:22.366Z,11.00
2023-04-17T10:05:53.848Z,10.70
2023-04-17T10:08:25.059Z,10.70
2023-04-17T10:11:05.306Z,10.00
2023-04-17T10:13:38.533Z,12.90
2023-04-17T10:16:09.477Z,11.40
2023-04-17T10:18:40.942Z,11.10
2023-04-17T10:21:25.724Z,10.80
2023-04-17T10:23:56.151Z,10.60
2023-04-17T10:26:43.050Z,10.10
2023-04-17T10:29:13.485Z,11.20
2023-04-17T10:32:19.518Z,10.80
2023-04-17T10:34:52.556Z,11.40
2023-04-17T10:37:25.239Z,11.20
2023-04-17T10:39:59.780Z,12.30
2023-04-17T10:42:32.787Z,11.10
2023-04-17T10:45:04.630Z,10.90
2023-04-17T10:47:35.873Z,10.20
2023-04-17T10:50:11.640Z,12.70
2023-04-17T10:52:44.661Z,10.30
2023-04-17T10:55:17.949Z,10.90
2023-04-17T10:58:01.917Z,11.30
2023-04-17T11:00:37.122Z,9.90
2023-04-17T11:03:08.553Z,10.70
2023-04-17T11:05:46.583Z,9.30
2023-04-17T11:08:17.435Z,12.10
2023-04-17T11:10:47.830Z,11.60
2023-04-17T11:13:18.506Z,9.30
2023-04-17T11:15:52.374Z,11.90
2023-04-17T11:18:23.972Z,10.80
2023-04-17T11:20:54.168Z,10.60
2023-04-17T11:23:24.626Z,8.10
2023-04-17T11:25:55.926Z,9.80
2023-04-17T11:28:28.242Z,10.20
2023-04-17T11:30:58.935Z,11.00
2023-04-17T11:33:29.697Z,11.10
2023-04-17T11:36:00.624Z,11.20
2023-04-17T11:38:32.669Z,10.00
2023-04-17T11:41:04.271Z,12.90
2023-04-17T11:43:37.135Z,11.10
2023-04-17T11:46:08.432Z,11.50
2023-04-17T11:48:38.921Z,9.80
2023-04-17T11:51:09.375Z,9.90
2023-04-17T11:53:48.026Z,10.40
2023-04-17T11:56:22.148Z,11.40
2023-04-17T11:58:53.799Z,9.60
2023-04-17T12:01:25.595Z,17.20
2023-04-17T12:03:59.087Z,11.80
2023-04-17T12:06:39.902Z,10.00
2023-04-17T12:09:21.319Z,9.70
2023-04-17T12:11:53.292Z,10.10
2023-04-17T12:14:26.315Z,10.60
2023-04-17T12:16:58.233Z,10.70
2023-04-17T12:19:31.670Z,9.40
2023-04-17T12:22:03.091Z,8.40
2023-04-17T12:24:35.251Z,9.70
2023-04-17T12:27:09.041Z,10.10
2023-04-17T12:29:44.467Z,8.30
2023-04-17T12:32:16.305Z,8.30
2023-04-17T12:34:47.217Z,8.10
2023-04-17T12:37:18.196Z,9.90
2023-04-17T12:39:48.552Z,10.00
2023-04-17T12:42:19.266Z,8.90
2023-04-17T12:44:49.622Z,8.90
2023-04-17T12:47:20.911Z,8.20
2023-04-17T12:49:51.700Z,8.20
2023-04-17T12:52:22.166Z,7.10
2023-04-17T12:54:58.446Z,9.20
2023-04-17T12:57:30.701Z,7.90
2023-04-17T13:00:01.234Z,9.20
2023-04-17T13:02:32.880Z,8.90
2023-04-17T13:05:04.792Z,8.80
2023-04-17T13:07:35.390Z,8.30
2023-04-17T13:10:08.112Z,8.80
2023-04-17T13:12:39.017Z,9.90
2023-04-17T13:15:13.462Z,9.30
2023-04-17T13:17:45.188Z,8.50
2023-04-17T13:20:17.722Z,8.90
2023-04-17T13:22:49.912Z,8.90
2023-04-17T13:25:21.878Z,9.00
2023-04-17T13:28:02.408Z,7.40
2023-04-17T13:30:38.183Z,9.60
2023-04-17T13:33:14.297Z,9.40
2023-04-17T13:35:50.892Z,10.00
2023-04-17T13:38:25.447Z,9.70
2023-04-17T13:40:57.264Z,9.10
2023-04-17T13:43:28.972Z,9.40
2023-04-17T13:46:00.815Z,9.90
2023-04-17T13:48:35.372Z,9.60
2023-04-17T13:51:07.410Z,10.30
2023-04-17T13:53:39.309Z,9.70
2023-04-17T13:56:11.573Z,11.20
2023-04-17T13:58:44.805Z,9.70
2023-04-17T14:01:16.170Z,9.70
2023-04-17T14:03:49.813Z,9.80
2023-04-17T14:06:21.985Z,8.90
2023-04-17T14:08:53.332Z,9.80
2023-04-17T14:11:24.770Z,10.50
2023-04-17T14:13:55.881Z,9.40
2023-04-17T14:16:28.188Z,9.60
2023-04-17T14:19:12.522Z,9.90
2023-04-17T14:21:45.620Z,9.70
2023-04-17T14:24:18.297Z,9.50
2023-04-17T14:26:49.619Z,9.20
2023-04-17T14:29:21.466Z,9.20
2023-04-17T14:31:53.017Z,9.20
2023-04-17T14:34:24.734Z,9.80
2023-04-17T14:36:58.036Z,10.20
2023-04-17T14:39:32.256Z,10.90
2023-04-17T14:42:06.516Z,9.90
2023-04-17T14:44:40.089Z,7.90
2023-04-17T14:47:13.192Z,7.80
2023-04-17T14:49:45.088Z,8.70
2023-04-17T14:52:18.540Z,9.60
2023-04-17T14:54:49.141Z,9.80
2023-04-17T14:57:19.786Z,9.60
2023-04-17T14:59:50.054Z,9.70
2023-04-17T15:02:21.077Z,9.40
2023-04-17T15:04:52.677Z,8.90
2023-04-17T15:07:23.694Z,10.00
2023-04-17T15:09:56.429Z,9.30
2023-04-17T15:12:27.109Z,9.80
2023-04-17T15:15:00.559Z,10.30
2023-04-17T15:17:30.875Z,9.10
2023-04-17T15:20:01.553Z,10.40
2023-04-17T15:22:32.065Z,11.20
2023-04-17T15:25:02.754Z,12.20
2023-04-17T15:27:33.722Z,10.70
2023-04-17T15:30:08.642Z,11.40
2023-04-17T15:32:39.508Z,10.90
2023-04-17T15:35:14.214Z,12.40
2023-04-17T15:37:48.330Z,10.80
2023-04-17T15:40:19.803Z,12.30
2023-04-17T15:42:50.020Z,13.60
2023-04-17T15:45:20.556Z,13.50
2023-04-17T15:47:50.940Z,12.00
2023-04-17T15:50:23.724Z,12.90
2023-04-17T15:52:54.394Z,11.30
2023-04-17T15:55:24.622Z,11.40
2023-04-17T15:57:58.302Z,13.60
2023-04-17T16:00:28.979Z,13.50
2023-04-17T16:02:59.550Z,14.40
2023-04-17T16:05:31.164Z,14.00
2023-04-17T16:08:02.916Z,15.20
2023-04-17T16:10:34.220Z,15.60
2023-04-17T16:13:04.537Z,15.90
2023-04-17T16:15:34.845Z,16.00
2023-04-17T16:18:07.962Z,15.70
2023-04-17T16:20:39.890Z,15.50
2023-04-17T16:23:10.325Z,16.90
2023-04-17T16:25:41.442Z,16.70
2023-04-17T16:28:22.408Z,15.40
2023-04-17T16:30:57.038Z,15.50
2023-04-17T16:33:30.310Z,16.70
2023-04-17T16:36:00.854Z,15.00
2023-04-17T16:38:31.621Z,14.50
2023-04-17T16:41:04.600Z,15.80
2023-04-17T16:43:35.140Z,14.30
2023-04-17T16:46:18.415Z,13.70
2023-04-17T16:48:53.283Z,14.40
2023-04-17T16:51:24.237Z,13.90
2023-04-17T16:53:57.056Z,17.30
2023-04-17T16:56:29.126Z,13.20
2023-04-17T16:59:01.617Z,12.80
2023-04-17T17:01:32.736Z,14.30
2023-04-17T17:04:04.337Z,13.50
2023-04-17T17:06:40.947Z,14.90
2023-04-17T17:09:12.229Z,13.90
2023-04-17T17:11:44.926Z,15.40
2023-04-17T17:14:21.547Z,15.40
2023-04-17T17:16:52.834Z,15.60
2023-04-17T17:19:23.421Z,14.40
2023-04-17T17:21:55.470Z,13.70
2023-04-17T17:24:26.191Z,14.20
2023-04-17T17:26:57.659Z,15.40
2023-04-17T17:29:28.178Z,12.90
2023-04-17T17:31:58.488Z,13.40
2023-04-17T17:34:32.568Z,15.40
2023-04-17T17:37:03.119Z,13.40
2023-04-17T17:39:34.074Z,15.30
2023-04-17T17:42:09.517Z,14.30
2023-04-17T17:44:39.902Z,13.60
2023-04-17T17:47:10.427Z,13.70
2023-04-17T17:49:41.065Z,13.90
2023-04-17T17:52:11.392Z,14.00
2023-04-17T17:54:42.488Z,13.50
2023-04-17T17:57:14.497Z,12.60
2023-04-17T17:59:45.462Z,12.50
2023-04-17T18:02:15.905Z,11.60
2023-04-17T18:04:47.101Z,13.50
2023-04-17T18:07:17.375Z,11.10
2023-04-17T18:09:50.597Z,10.20
2023-04-17T18:12:21.288Z,10.80
2023-04-17T18:14:54.300Z,12.20
2023-04-17T18:17:24.593Z,10.20
2023-04-17T18:19:55.392Z,11.60
2023-04-17T18:22:26.283Z,11.90
2023-04-17T18:24:57.719Z,11.60
2023-04-17T18:27:33.775Z,10.70
2023-04-17T18:30:05.688Z,12.40
2023-04-17T18:32:40.088Z,11.70
2023-04-17T18:35:11.711Z,12.90
2023-04-17T18:37:44.924Z,17.00
2023-04-17T18:40:17.123Z,14.40
2023-04-17T18:42:47.696Z,12.30
2023-04-17T18:45:18.910Z,14.20
2023-04-17T18:47:49.829Z,14.70
2023-04-17T18:50:21.367Z,16.30
2023-04-17T18:52:54.391Z,12.20
2023-04-17T18:55:29.015Z,12.20
2023-04-17T18:58:04.064Z,11.90
2023-04-17T19:00:40.727Z,12.60
2023-04-17T19:03:15.350Z,11.30
2023-04-17T19:05:47.174Z,12.80
2023-04-17T19:08:18.721Z,11.60
2023-04-17T19:10:49.792Z,12.20
2023-04-17T19:13:27.485Z,10.90
2023-04-17T19:16:00.043Z,11.60
2023-04-17T19:18:54.779Z,12.00
2023-04-17T19:21:28.123Z,12.10
2023-04-17T19:24:01.512Z,12.70
2023-04-17T19:26:34.143Z,14.50
2023-04-17T19:29:05.166Z,12.00
2023-04-17T19:31:37.171Z,12.20
2023-04-17T19:34:08.237Z,13.60
2023-04-17T19:36:47.496Z,12.80
2023-04-17T19:39:26.504Z,13.00
2023-04-17T19:42:05.345Z,12.40
2023-04-17T19:44:40.310Z,12.60
2023-04-17T19:47:14.255Z,12.90
2023-04-17T19:49:47.936Z,14.30
2023-04-17T19:52:18.576Z,12.00
2023-04-17T19:54:50.979Z,12.90
2023-04-17T19:57:21.804Z,12.10
2023-04-17T19:59:52.428Z,12.90
2023-04-17T20:02:22.905Z,12.10
2023-04-17T20:04:56.170Z,10.90
2023-04-17T20:07:31.124Z,11.80
2023-04-17T20:10:05.815Z,12.60
2023-04-17T20:12:37.448Z,13.90
2023-04-17T20:15:10.321Z,12.40
2023-04-17T20:17:43.628Z,13.20
2023-04-17T20:20:14.806Z,12.60
2023-04-17T20:22:45.411Z,12.70
2023-04-17T20:25:17.074Z,12.70
2023-04-17T20:27:48.171Z,12.50
2023-04-17T20:30:19.898Z,11.60
2023-04-17T20:32:50.671Z,11.70
2023-04-17T20:35:24.464Z,10.70
2023-04-17T20:37:55.774Z,12.00
2023-04-17T20:40:27.424Z,11.40
2023-04-17T20:42:59.882Z,12.60
2023-04-17T20:45:30.527Z,11.80
2023-04-17T20:48:01.933Z,12.50
2023-04-17T20:50:32.466Z,10.80
2023-04-17T20:53:03.650Z,11.50
2023-04-17T20:55:34.063Z,10.70
2023-04-17T20:58:05.321Z,12.30
2023-04-17T21:00:36.294Z,12.80
2023-04-17T21:03:08.485Z,10.30
2023-04-17T21:05:38.947Z,10.90
2023-04-17T21:08:09.503Z,12.30
2023-04-17T21:10:40.226Z,11.70
2023-04-17T21:13:10.810Z,11.00
2023-04-17T21:15:42.390Z,12.50
2023-04-17T21:18:13.784Z,10.80
2023-04-17T21:20:44.505Z,10.40
2023-04-17T21:23:15.635Z,9.40
2023-04-17T21:25:50.341Z,11.10
2023-04-17T21:28:20.858Z,10.20
2023-04-17T21:30:52.249Z,11.20
2023-04-17T21:33:23.177Z,10.00
2023-04-17T21:35:53.613Z,10.30
2023-04-17T21:38:24.687Z,10.40
2023-04-17T21:40:55.261Z,10.70
2023-04-17T21:43:25.785Z,9.90
2023-04-17T21:45:56.970Z,10.00
2023-04-17T21:48:27.892Z,10.00
2023-04-17T21:51:03.825Z,10.60
2023-04-17T21:53:40.165Z,9.70
2023-04-17T21:56:11.176Z,10.00
2023-04-17T21:58:41.341Z,8.90
2023-04-17T22:01:11.721Z,7.90
2023-04-17T22:03:42.825Z,9.30
2023-04-17T22:06:13.863Z,9.70
2023-04-17T22:08:44.297Z,9.20
2023-04-17T22:11:16.482Z,9.60
2023-04-17T22:13:47.102Z,10.40
2023-04-17T22:16:17.801Z,9.00
2023-04-17T22:18:51.682Z,9.70
2023-04-17T22:21:22.393Z,9.40
2023-04-17T22:24:00.433Z,9.30
2023-04-17T22:26:31.307Z,9.60
2023-04-17T22:29:04.824Z,9.00
2023-04-17T22:31:34.905Z,9.30
2023-04-17T22:34:05.614Z,9.90
2023-04-17T22:36:37.705Z,9.80
2023-04-17T22:39:09.138Z,10.10
2023-04-17T22:41:39.613Z,9.10
2023-04-17T22:44:09.889Z,9.10
2023-04-17T22:46:42.564Z,9.40
2023-04-17T22:49:14.464Z,9.70
2023-04-17T22:51:44.998Z,8.90
2023-04-17T22:54:22.671Z,9.80
2023-04-17T22:56:53.500Z,10.70
2023-04-17T22:59:23.981Z,9.80
2023-04-17T23:01:54.714Z,8.60
2023-04-17T23:04:25.339Z,8.80
2023-04-17T23:06:55.744Z,7.80
2023-04-17T23:09:26.060Z,7.10
2023-04-17T23:11:56.529Z,9.10
2023-04-17T23:14:28.180Z,7.80
2023-04-17T23:16:58.582Z,8.40
2023-04-17T23:19:29.860Z,7.60
2023-04-17T23:22:01.677Z,8.70
2023-04-17T23:24:34.529Z,8.20
2023-04-17T23:27:05.400Z,7.10
2023-04-17T23:29:35.723Z,8.10
2023-04-17T23:32:08.364Z,8.00
2023-04-17T23:34:38.654Z,7.80
2023-04-17T23:37:10.010Z,7.40
2023-04-17T23:39:40.362Z,8.00
2023-04-17T23:42:11.171Z,6.80
2023-04-17T23:44:41.883Z,8.30
2023-04-17T23:47:13.513Z,7.10
2023-04-17T23:49:44.074Z,8.10
2023-04-17T23:52:14.616Z,9.60
2023-04-17T23:54:44.860Z,8.60
2023-04-17T23:57:15.276Z,8.80
2023-04-17T23:59:45.724Z,8.60
